sensor_id;sensor_type;location;lat;lon;timestamp;noise_LAeq;noise_LA_min;noise_LA_max;noise_LA01;noise_LA95
67310;Laerm;65444;51.438;5.982;2023-01-16T00:02:29;44.80;40.27;56.03;;
67310;Laerm;65444;51.438;5.982;2023-01-16T00:02:39;49.65;45.07;61.01;;
67310;Laerm;65444;51.438;5.982;2023-01-16T00:02:50;52.27;44.43;68.00;;
67310;Laerm;65444;51.438;5.982;2023-01-16T00:03:01;47.18;45.02;53.29;;
67310;Laerm;65444;51.438;5.982;2023-01-16T00:04:18;50.35;40.15;76.79;;
67310;Laerm;65444;51.438;5.982;2023-01-16T00:04:28;44.84;39.84;62.26;;
67310;Laerm;65444;51.438;5.982;2023-01-16T00:04:39;41.81;37.07;60.28;;
67310;Laerm;65444;51.438;5.982;2023-01-16T00:04:50;40.11;35.92;56.99;;
67310;Laerm;65444;51.438;5.982;2023-01-16T00:05:00;41.09;35.09;55.19;;
67310;Laerm;65444;51.438;5.982;2023-01-16T00:05:11;38.53;33.92;52.28;;
67310;Laerm;65444;51.438;5.982;2023-01-16T00:05:22;40.69;34.30;61.85;;
67310;Laerm;65444;51.438;5.982;2023-01-16T00:05:32;46.45;33.93;66.03;;
67310;Laerm;65444;51.438;5.982;2023-01-16T00:05:43;35.15;32.77;50.34;;
67310;Laerm;65444;51.438;5.982;2023-01-16T00:05:54;41.79;34.26;56.99;;
67310;Laerm;65444;51.438;5.982;2023-01-16T00:06:09;39.96;34.26;52.72;;
67310;Laerm;65444;51.438;5.982;2023-01-16T00:06:20;35.59;32.81;42.61;;
67310;Laerm;65444;51.438;5.982;2023-01-16T00:06:31;35.74;32.18;45.10;;
67310;Laerm;65444;51.438;5.982;2023-01-16T00:06:51;36.29;31.94;50.53;;
67310;Laerm;65444;51.438;5.982;2023-01-16T00:07:02;35.48;32.06;47.10;;
67310;Laerm;65444;51.438;5.982;2023-01-16T00:07:12;33.77;31.20;37.79;;
67310;Laerm;65444;51.438;5.982;2023-01-16T00:08:35;35.00;30.67;51.85;;
67310;Laerm;65444;51.438;5.982;2023-01-16T00:08:46;38.59;31.77;53.77;;
67310;Laerm;65444;51.438;5.982;2023-01-16T00:08:58;35.34;30.78;51.07;;
67310;Laerm;65444;51.438;5.982;2023-01-16T00:09:09;33.64;30.92;41.22;;
67310;Laerm;65444;51.438;5.982;2023-01-16T00:09:20;34.01;31.53;41.75;;
67310;Laerm;65444;51.438;5.982;2023-01-16T00:09:30;44.41;31.91;58.98;;
67310;Laerm;65444;51.438;5.982;2023-01-16T00:09:44;44.55;31.57;60.85;;
67310;Laerm;65444;51.438;5.982;2023-01-16T00:09:55;33.46;31.16;39.74;;
67310;Laerm;65444;51.438;5.982;2023-01-16T00:10:05;35.99;31.84;45.36;;
67310;Laerm;65444;51.438;5.982;2023-01-16T00:10:16;33.44;31.61;41.02;;
67310;Laerm;65444;51.438;5.982;2023-01-16T00:10:27;46.83;31.55;62.25;;
67310;Laerm;65444;51.438;5.982;2023-01-16T00:10:37;34.78;31.03;48.44;;
67310;Laerm;65444;51.438;5.982;2023-01-16T00:10:48;32.79;30.79;36.14;;
67310;Laerm;65444;51.438;5.982;2023-01-16T00:11:09;35.33;31.93;45.10;;
67310;Laerm;65444;51.438;5.982;2023-01-16T00:11:20;42.04;32.74;58.04;;
67310;Laerm;65444;51.438;5.982;2023-01-16T00:11:30;36.72;33.62;48.33;;
67310;Laerm;65444;51.438;5.982;2023-01-16T00:11:41;37.50;34.66;50.80;;
67310;Laerm;65444;51.438;5.982;2023-01-16T00:11:51;36.89;34.46;44.29;;
67310;Laerm;65444;51.438;5.982;2023-01-16T00:12:02;38.41;35.64;44.79;;
67310;Laerm;65444;51.438;5.982;2023-01-16T00:12:13;41.32;37.12;57.68;;
67310;Laerm;65444;51.438;5.982;2023-01-16T00:12:24;39.66;36.70;48.21;;
67310;Laerm;65444;51.438;5.982;2023-01-16T00:12:35;39.35;36.46;56.36;;
67310;Laerm;65444;51.438;5.982;2023-01-16T00:12:48;37.73;35.29;47.17;;
67310;Laerm;65444;51.438;5.982;2023-01-16T00:12:58;36.38;33.30;42.14;;
67310;Laerm;65444;51.438;5.982;2023-01-16T00:13:10;35.59;33.09;39.11;;
67310;Laerm;65444;51.438;5.982;2023-01-16T00:13:21;38.07;35.93;41.44;;
67310;Laerm;65444;51.438;5.982;2023-01-16T00:14:45;36.32;32.49;52.07;;
67310;Laerm;65444;51.438;5.982;2023-01-16T00:14:56;45.13;35.44;66.53;;
67310;Laerm;65444;51.438;5.982;2023-01-16T00:15:07;36.80;33.84;42.86;;
67310;Laerm;65444;51.438;5.982;2023-01-16T00:15:17;37.68;33.39;57.59;;
67310;Laerm;65444;51.438;5.982;2023-01-16T00:15:28;34.84;33.02;41.28;;
67310;Laerm;65444;51.438;5.982;2023-01-16T00:15:45;34.06;32.44;38.41;;
67310;Laerm;65444;51.438;5.982;2023-01-16T00:15:57;33.17;31.19;45.45;;
67310;Laerm;65444;51.438;5.982;2023-01-16T00:16:08;32.95;31.17;43.53;;
67310;Laerm;65444;51.438;5.982;2023-01-16T00:16:18;32.84;31.33;35.16;;
67310;Laerm;65444;51.438;5.982;2023-01-16T00:16:33;33.91;30.98;43.42;;
67310;Laerm;65444;51.438;5.982;2023-01-16T00:16:47;35.15;30.93;47.44;;
67310;Laerm;65444;51.438;5.982;2023-01-16T00:16:57;34.44;30.99;43.97;;
67310;Laerm;65444;51.438;5.982;2023-01-16T00:17:08;34.99;32.03;39.44;;
67310;Laerm;65444;51.438;5.982;2023-01-16T00:17:19;38.85;34.61;44.44;;
67310;Laerm;65444;51.438;5.982;2023-01-16T00:17:31;42.65;37.26;49.26;;
67310;Laerm;65444;51.438;5.982;2023-01-16T00:17:41;46.05;42.32;50.44;;
67310;Laerm;65444;51.438;5.982;2023-01-16T00:17:52;44.61;40.28;63.38;;
67310;Laerm;65444;51.438;5.982;2023-01-16T00:18:02;40.37;37.65;46.03;;
67310;Laerm;65444;51.438;5.982;2023-01-16T00:18:13;39.27;36.47;44.03;;
67310;Laerm;65444;51.438;5.982;2023-01-16T00:18:23;40.15;35.68;53.52;;
67310;Laerm;65444;51.438;5.982;2023-01-16T00:18:34;36.36;33.86;40.64;;
67310;Laerm;65444;51.438;5.982;2023-01-16T00:18:45;37.33;35.26;43.02;;
67310;Laerm;65444;51.438;5.982;2023-01-16T00:18:56;37.94;35.29;48.87;;
67310;Laerm;65444;51.438;5.982;2023-01-16T00:19:07;35.87;32.88;39.46;;
67310;Laerm;65444;51.438;5.982;2023-01-16T00:20:30;34.23;29.92;51.68;;
67310;Laerm;65444;51.438;5.982;2023-01-16T00:20:41;31.20;29.03;36.15;;
67310;Laerm;65444;51.438;5.982;2023-01-16T00:20:51;30.65;29.14;37.23;;
67310;Laerm;65444;51.438;5.982;2023-01-16T00:21:14;31.48;29.18;48.13;;
67310;Laerm;65444;51.438;5.982;2023-01-16T00:21:24;30.43;28.84;39.36;;
67310;Laerm;65444;51.438;5.982;2023-01-16T00:21:38;30.32;28.39;42.01;;
67310;Laerm;65444;51.438;5.982;2023-01-16T00:21:48;30.20;28.71;37.00;;
67310;Laerm;65444;51.438;5.982;2023-01-16T00:21:59;30.88;29.18;38.83;;
67310;Laerm;65444;51.438;5.982;2023-01-16T00:22:09;31.24;28.65;43.08;;
67310;Laerm;65444;51.438;5.982;2023-01-16T00:22:20;31.40;28.89;42.80;;
67310;Laerm;65444;51.438;5.982;2023-01-16T00:22:31;31.91;28.39;40.23;;
67310;Laerm;65444;51.438;5.982;2023-01-16T00:22:41;31.18;28.95;38.93;;
67310;Laerm;65444;51.438;5.982;2023-01-16T00:22:52;34.23;29.90;47.25;;
67310;Laerm;65444;51.438;5.982;2023-01-16T00:23:05;31.90;29.72;36.86;;
67310;Laerm;65444;51.438;5.982;2023-01-16T00:23:15;31.77;29.78;37.32;;
67310;Laerm;65444;51.438;5.982;2023-01-16T00:23:26;41.56;29.61;52.50;;
67310;Laerm;65444;51.438;5.982;2023-01-16T00:23:37;35.01;29.20;42.20;;
67310;Laerm;65444;51.438;5.982;2023-01-16T00:23:57;33.38;28.65;41.91;;
67310;Laerm;65444;51.438;5.982;2023-01-16T00:24:08;34.79;28.62;42.28;;
67310;Laerm;65444;51.438;5.982;2023-01-16T00:24:19;34.63;28.60;45.01;;
67310;Laerm;65444;51.438;5.982;2023-01-16T00:24:29;36.16;28.75;45.05;;
67310;Laerm;65444;51.438;5.982;2023-01-16T00:24:41;35.09;28.54;43.90;;
67310;Laerm;65444;51.438;5.982;2023-01-16T00:24:52;35.17;28.33;42.62;;
67310;Laerm;65444;51.438;5.982;2023-01-16T00:25:02;33.63;28.70;42.28;;
67310;Laerm;65444;51.438;5.982;2023-01-16T00:25:13;32.13;28.03;37.44;;
67310;Laerm;65444;51.438;5.982;2023-01-16T00:25:29;32.25;28.42;39.60;;
67310;Laerm;65444;51.438;5.982;2023-01-16T00:25:40;32.47;28.68;39.70;;
67310;Laerm;65444;51.438;5.982;2023-01-16T00:25:51;33.22;28.95;40.58;;
67310;Laerm;65444;51.438;5.982;2023-01-16T00:26:11;34.59;29.00;52.36;;
67310;Laerm;65444;51.438;5.982;2023-01-16T00:26:33;33.84;28.72;51.78;;
67310;Laerm;65444;51.438;5.982;2023-01-16T00:26:44;31.73;28.01;42.73;;
67310;Laerm;65444;51.438;5.982;2023-01-16T00:26:54;32.59;28.92;38.52;;
67310;Laerm;65444;51.438;5.982;2023-01-16T00:27:04;31.80;28.44;41.19;;
67310;Laerm;65444;51.438;5.982;2023-01-16T00:27:15;30.78;28.41;37.84;;
67310;Laerm;65444;51.438;5.982;2023-01-16T00:27:25;32.38;28.20;39.54;;
67310;Laerm;65444;51.438;5.982;2023-01-16T00:27:36;31.04;27.86;38.80;;
67310;Laerm;65444;51.438;5.982;2023-01-16T00:27:46;31.02;28.50;36.83;;
67310;Laerm;65444;51.438;5.982;2023-01-16T00:27:57;30.54;28.27;35.21;;
67310;Laerm;65444;51.438;5.982;2023-01-16T00:28:08;30.34;28.64;35.83;;
67310;Laerm;65444;51.438;5.982;2023-01-16T00:28:19;32.16;28.55;42.90;;
67310;Laerm;65444;51.438;5.982;2023-01-16T00:29:08;30.64;28.09;40.17;;
67310;Laerm;65444;51.438;5.982;2023-01-16T00:29:19;30.01;27.82;37.29;;
67310;Laerm;65444;51.438;5.982;2023-01-16T00:29:29;29.97;27.96;34.83;;
67310;Laerm;65444;51.438;5.982;2023-01-16T00:29:40;30.32;28.30;37.03;;
67310;Laerm;65444;51.438;5.982;2023-01-16T00:29:52;32.54;28.32;44.28;;
67310;Laerm;65444;51.438;5.982;2023-01-16T00:30:03;30.41;28.56;35.34;;
67310;Laerm;65444;51.438;5.982;2023-01-16T00:30:14;29.90;28.46;34.14;;
67310;Laerm;65444;51.438;5.982;2023-01-16T00:30:25;30.32;28.60;43.76;;
67310;Laerm;65444;51.438;5.982;2023-01-16T00:30:36;30.00;28.63;35.93;;
67310;Laerm;65444;51.438;5.982;2023-01-16T00:33:41;34.50;30.40;43.39;;
67310;Laerm;65444;51.438;5.982;2023-01-16T00:33:53;36.09;30.58;44.00;;
67310;Laerm;65444;51.438;5.982;2023-01-16T00:34:03;34.67;31.39;38.89;;
67310;Laerm;65444;51.438;5.982;2023-01-16T00:34:14;35.42;31.71;41.27;;
67310;Laerm;65444;51.438;5.982;2023-01-16T00:35:43;35.23;28.73;59.09;;
67310;Laerm;65444;51.438;5.982;2023-01-16T00:35:56;31.85;29.02;44.85;;
67310;Laerm;65444;51.438;5.982;2023-01-16T00:36:06;31.13;28.93;41.90;;
67310;Laerm;65444;51.438;5.982;2023-01-16T00:36:17;33.25;29.23;44.45;;
67310;Laerm;65444;51.438;5.982;2023-01-16T00:36:28;36.90;29.22;52.81;;
67310;Laerm;65444;51.438;5.982;2023-01-16T00:36:39;31.40;28.81;36.80;;
67310;Laerm;65444;51.438;5.982;2023-01-16T00:36:50;45.22;28.65;64.69;;
67310;Laerm;65444;51.438;5.982;2023-01-16T00:37:00;35.84;30.04;51.40;;
67310;Laerm;65444;51.438;5.982;2023-01-16T00:37:11;36.16;29.64;51.39;;
67310;Laerm;65444;51.438;5.982;2023-01-16T00:37:22;39.49;30.17;51.61;;
67310;Laerm;65444;51.438;5.982;2023-01-16T00:38:12;41.93;31.07;62.63;;
67310;Laerm;65444;51.438;5.982;2023-01-16T00:38:23;37.70;32.73;50.40;;
67310;Laerm;65444;51.438;5.982;2023-01-16T00:38:34;39.86;36.09;49.75;;
67310;Laerm;65444;51.438;5.982;2023-01-16T00:38:45;45.78;36.19;60.98;;
67310;Laerm;65444;51.438;5.982;2023-01-16T00:39:48;31.11;28.12;42.39;;
67310;Laerm;65444;51.438;5.982;2023-01-16T00:39:59;30.98;29.48;36.07;;
67310;Laerm;65444;51.438;5.982;2023-01-16T00:41:22;31.94;28.37;49.78;;
67310;Laerm;65444;51.438;5.982;2023-01-16T00:41:33;31.83;29.12;44.63;;
67310;Laerm;65444;51.438;5.982;2023-01-16T00:41:43;31.47;29.11;36.91;;
67310;Laerm;65444;51.438;5.982;2023-01-16T00:41:54;32.17;29.55;46.03;;
67310;Laerm;65444;51.438;5.982;2023-01-16T00:42:04;33.04;29.67;45.56;;
67310;Laerm;65444;51.438;5.982;2023-01-16T00:42:15;41.16;30.39;58.01;;
67310;Laerm;65444;51.438;5.982;2023-01-16T00:42:26;40.34;31.43;54.61;;
67310;Laerm;65444;51.438;5.982;2023-01-16T00:42:36;31.60;29.25;34.81;;
67310;Laerm;65444;51.438;5.982;2023-01-16T00:42:47;31.63;29.58;37.28;;
67310;Laerm;65444;51.438;5.982;2023-01-16T00:42:58;39.25;30.99;51.59;;
67310;Laerm;65444;51.438;5.982;2023-01-16T00:43:09;36.22;31.45;46.70;;
67310;Laerm;65444;51.438;5.982;2023-01-16T00:43:19;33.98;30.24;47.37;;
67310;Laerm;65444;51.438;5.982;2023-01-16T00:43:30;32.37;30.19;38.47;;
67310;Laerm;65444;51.438;5.982;2023-01-16T00:43:41;31.57;29.58;35.83;;
67310;Laerm;65444;51.438;5.982;2023-01-16T00:43:51;31.30;29.49;34.91;;
67310;Laerm;65444;51.438;5.982;2023-01-16T00:44:08;35.93;29.98;49.26;;
67310;Laerm;65444;51.438;5.982;2023-01-16T00:44:18;37.16;29.54;49.82;;
67310;Laerm;65444;51.438;5.982;2023-01-16T00:44:29;32.18;28.70;42.07;;
67310;Laerm;65444;51.438;5.982;2023-01-16T00:44:40;30.33;28.23;35.82;;
67310;Laerm;65444;51.438;5.982;2023-01-16T00:44:51;29.96;28.61;31.62;;
67310;Laerm;65444;51.438;5.982;2023-01-16T00:45:05;31.34;29.27;38.03;;
67310;Laerm;65444;51.438;5.982;2023-01-16T00:45:16;32.55;30.12;37.81;;
67310;Laerm;65444;51.438;5.982;2023-01-16T00:45:27;30.69;29.26;36.12;;
67310;Laerm;65444;51.438;5.982;2023-01-16T00:45:37;30.13;28.66;37.00;;
67310;Laerm;65444;51.438;5.982;2023-01-16T00:45:50;30.78;28.84;38.69;;
67310;Laerm;65444;51.438;5.982;2023-01-16T00:46:01;34.32;29.31;48.74;;
67310;Laerm;65444;51.438;5.982;2023-01-16T00:46:11;31.08;28.60;35.45;;
67310;Laerm;65444;51.438;5.982;2023-01-16T00:46:22;30.20;28.37;35.88;;
67310;Laerm;65444;51.438;5.982;2023-01-16T00:46:33;29.73;28.18;30.90;;
67310;Laerm;65444;51.438;5.982;2023-01-16T00:46:43;29.96;28.60;35.67;;
67310;Laerm;65444;51.438;5.982;2023-01-16T00:46:54;30.56;28.41;42.74;;
67310;Laerm;65444;51.438;5.982;2023-01-16T00:47:05;29.91;27.86;36.17;;
67310;Laerm;65444;51.438;5.982;2023-01-16T00:47:16;30.53;28.17;39.74;;
67310;Laerm;65444;51.438;5.982;2023-01-16T00:47:26;31.10;29.01;36.60;;
67310;Laerm;65444;51.438;5.982;2023-01-16T00:47:37;32.62;29.33;42.90;;
67310;Laerm;65444;51.438;5.982;2023-01-16T00:47:48;31.80;28.96;39.14;;
67310;Laerm;65444;51.438;5.982;2023-01-16T00:47:59;30.53;29.01;37.05;;
67310;Laerm;65444;51.438;5.982;2023-01-16T00:48:09;31.37;28.35;41.11;;
67310;Laerm;65444;51.438;5.982;2023-01-16T00:48:20;30.00;27.90;44.10;;
67310;Laerm;65444;51.438;5.982;2023-01-16T00:48:31;30.63;28.45;40.47;;
67310;Laerm;65444;51.438;5.982;2023-01-16T00:48:41;29.84;28.38;36.00;;
67310;Laerm;65444;51.438;5.982;2023-01-16T00:48:52;32.73;28.62;44.23;;
67310;Laerm;65444;51.438;5.982;2023-01-16T00:49:07;31.76;29.79;39.36;;
67310;Laerm;65444;51.438;5.982;2023-01-16T00:49:17;33.81;29.29;48.84;;
67310;Laerm;65444;51.438;5.982;2023-01-16T00:49:28;31.25;29.61;35.65;;
67310;Laerm;65444;51.438;5.982;2023-01-16T00:49:53;31.48;28.96;36.79;;
67310;Laerm;65444;51.438;5.982;2023-01-16T00:50:04;31.80;29.02;39.09;;
67310;Laerm;65444;51.438;5.982;2023-01-16T00:50:14;35.99;30.51;45.11;;
67310;Laerm;65444;51.438;5.982;2023-01-16T00:50:33;36.52;30.82;50.03;;
67310;Laerm;65444;51.438;5.982;2023-01-16T00:50:43;30.67;28.72;35.50;;
67310;Laerm;65444;51.438;5.982;2023-01-16T00:50:54;31.38;29.02;36.49;;
67310;Laerm;65444;51.438;5.982;2023-01-16T00:51:06;33.69;30.55;40.68;;
67310;Laerm;65444;51.438;5.982;2023-01-16T00:51:17;31.55;28.72;39.50;;
67310;Laerm;65444;51.438;5.982;2023-01-16T00:51:27;35.42;28.54;48.98;;
67310;Laerm;65444;51.438;5.982;2023-01-16T00:51:40;31.22;29.46;33.95;;
67310;Laerm;65444;51.438;5.982;2023-01-16T00:51:51;33.01;29.90;41.93;;
67310;Laerm;65444;51.438;5.982;2023-01-16T00:52:02;33.01;30.26;39.30;;
67310;Laerm;65444;51.438;5.982;2023-01-16T00:52:13;34.09;29.75;44.37;;
67310;Laerm;65444;51.438;5.982;2023-01-16T00:52:24;31.66;29.40;40.08;;
67310;Laerm;65444;51.438;5.982;2023-01-16T00:52:41;32.63;29.28;41.15;;
67310;Laerm;65444;51.438;5.982;2023-01-16T00:52:51;30.80;29.13;35.48;;
67310;Laerm;65444;51.438;5.982;2023-01-16T00:53:01;31.30;29.32;36.76;;
67310;Laerm;65444;51.438;5.982;2023-01-16T00:53:16;30.29;28.71;34.98;;
67310;Laerm;65444;51.438;5.982;2023-01-16T00:53:27;30.18;28.27;35.21;;
67310;Laerm;65444;51.438;5.982;2023-01-16T00:53:38;31.45;29.19;42.59;;
67310;Laerm;65444;51.438;5.982;2023-01-16T00:53:48;30.48;28.69;36.53;;
67310;Laerm;65444;51.438;5.982;2023-01-16T00:53:59;30.68;28.85;32.76;;
67310;Laerm;65444;51.438;5.982;2023-01-16T00:54:10;29.84;28.11;35.24;;
67310;Laerm;65444;51.438;5.982;2023-01-16T00:54:20;29.50;28.12;34.84;;
67310;Laerm;65444;51.438;5.982;2023-01-16T00:54:31;30.59;28.41;36.41;;
67310;Laerm;65444;51.438;5.982;2023-01-16T00:54:41;31.25;28.30;44.47;;
67310;Laerm;65444;51.438;5.982;2023-01-16T00:54:52;51.45;28.33;70.86;;
67310;Laerm;65444;51.438;5.982;2023-01-16T00:55:02;43.69;29.94;56.67;;
67310;Laerm;65444;51.438;5.982;2023-01-16T00:55:13;30.88;28.93;39.50;;
67310;Laerm;65444;51.438;5.982;2023-01-16T00:55:24;34.42;30.33;43.15;;
67310;Laerm;65444;51.438;5.982;2023-01-16T00:55:35;33.80;29.48;47.33;;
67310;Laerm;65444;51.438;5.982;2023-01-16T00:55:46;30.61;28.99;34.12;;
67310;Laerm;65444;51.438;5.982;2023-01-16T00:55:57;30.96;29.00;37.07;;
67310;Laerm;65444;51.438;5.982;2023-01-16T00:56:08;36.11;28.79;51.11;;
67310;Laerm;65444;51.438;5.982;2023-01-16T00:56:19;30.15;28.85;32.08;;
67310;Laerm;65444;51.438;5.982;2023-01-16T00:56:29;30.59;29.09;35.30;;
67310;Laerm;65444;51.438;5.982;2023-01-16T00:56:40;30.06;28.37;32.45;;
67310;Laerm;65444;51.438;5.982;2023-01-16T00:56:50;30.99;29.57;35.71;;
67310;Laerm;65444;51.438;5.982;2023-01-16T00:57:01;38.27;29.62;52.13;;
67310;Laerm;65444;51.438;5.982;2023-01-16T00:57:11;40.76;29.89;52.01;;
67310;Laerm;65444;51.438;5.982;2023-01-16T00:57:42;31.37;28.37;36.76;;
67310;Laerm;65444;51.438;5.982;2023-01-16T00:57:53;30.53;28.89;33.66;;
67310;Laerm;65444;51.438;5.982;2023-01-16T00:58:04;30.88;29.06;35.86;;
67310;Laerm;65444;51.438;5.982;2023-01-16T00:58:14;31.21;28.71;35.69;;
67310;Laerm;65444;51.438;5.982;2023-01-16T00:58:25;30.42;28.98;34.19;;
67310;Laerm;65444;51.438;5.982;2023-01-16T00:58:35;31.33;29.56;35.32;;
67310;Laerm;65444;51.438;5.982;2023-01-16T00:58:46;30.53;28.50;36.88;;
67310;Laerm;65444;51.438;5.982;2023-01-16T00:58:57;32.10;28.92;42.03;;
67310;Laerm;65444;51.438;5.982;2023-01-16T00:59:09;36.70;31.54;51.01;;
67310;Laerm;65444;51.438;5.982;2023-01-16T00:59:19;33.13;29.38;44.53;;
67310;Laerm;65444;51.438;5.982;2023-01-16T00:59:30;32.45;29.64;40.08;;
67310;Laerm;65444;51.438;5.982;2023-01-16T00:59:41;31.07;28.87;38.40;;
67310;Laerm;65444;51.438;5.982;2023-01-16T00:59:52;32.41;28.73;45.46;;
67310;Laerm;65444;51.438;5.982;2023-01-16T01:00:07;30.58;28.93;36.84;;
67310;Laerm;65444;51.438;5.982;2023-01-16T01:00:18;36.86;28.46;49.98;;
67310;Laerm;65444;51.438;5.982;2023-01-16T01:00:31;31.05;29.37;38.45;;
67310;Laerm;65444;51.438;5.982;2023-01-16T01:00:44;29.95;28.40;33.85;;
67310;Laerm;65444;51.438;5.982;2023-01-16T01:00:55;29.92;28.58;32.66;;
67310;Laerm;65444;51.438;5.982;2023-01-16T01:01:05;30.18;28.31;32.44;;
67310;Laerm;65444;51.438;5.982;2023-01-16T01:01:16;30.71;29.14;37.55;;
67310;Laerm;65444;51.438;5.982;2023-01-16T01:02:12;31.65;28.57;47.59;;
67310;Laerm;65444;51.438;5.982;2023-01-16T01:02:22;30.30;27.79;38.77;;
67310;Laerm;65444;51.438;5.982;2023-01-16T01:02:33;30.50;28.79;36.22;;
67310;Laerm;65444;51.438;5.982;2023-01-16T01:02:43;31.64;28.68;43.53;;
67310;Laerm;65444;51.438;5.982;2023-01-16T01:02:54;31.29;28.33;38.81;;
67310;Laerm;65444;51.438;5.982;2023-01-16T01:03:04;31.40;29.19;35.14;;
67310;Laerm;65444;51.438;5.982;2023-01-16T01:03:52;30.77;29.09;36.27;;
67310;Laerm;65444;51.438;5.982;2023-01-16T01:04:03;31.44;28.84;38.97;;
67310;Laerm;65444;51.438;5.982;2023-01-16T01:04:14;30.41;28.81;34.04;;
67310;Laerm;65444;51.438;5.982;2023-01-16T01:04:25;31.62;29.12;33.94;;
67310;Laerm;65444;51.438;5.982;2023-01-16T01:04:35;30.64;28.13;35.22;;
67310;Laerm;65444;51.438;5.982;2023-01-16T01:04:46;30.72;28.78;33.45;;
67310;Laerm;65444;51.438;5.982;2023-01-16T01:04:59;32.19;29.59;40.34;;
67310;Laerm;65444;51.438;5.982;2023-01-16T01:05:10;31.03;28.55;36.78;;
67310;Laerm;65444;51.438;5.982;2023-01-16T01:05:21;32.54;29.24;40.66;;
67310;Laerm;65444;51.438;5.982;2023-01-16T01:05:34;32.54;29.77;38.66;;
67310;Laerm;65444;51.438;5.982;2023-01-16T01:05:44;31.80;29.16;38.05;;
67310;Laerm;65444;51.438;5.982;2023-01-16T01:05:55;38.39;28.72;55.32;;
67310;Laerm;65444;51.438;5.982;2023-01-16T01:06:10;32.04;28.84;42.09;;
67310;Laerm;65444;51.438;5.982;2023-01-16T01:06:38;30.63;28.60;37.64;;
67310;Laerm;65444;51.438;5.982;2023-01-16T01:07:12;30.37;28.23;36.01;;
67310;Laerm;65444;51.438;5.982;2023-01-16T01:07:22;31.46;28.83;39.70;;
67310;Laerm;65444;51.438;5.982;2023-01-16T01:07:44;30.60;28.70;33.43;;
67310;Laerm;65444;51.438;5.982;2023-01-16T01:08:06;32.41;28.89;37.88;;
67310;Laerm;65444;51.438;5.982;2023-01-16T01:08:16;32.48;30.24;36.83;;
67310;Laerm;65444;51.438;5.982;2023-01-16T01:08:26;31.68;29.39;35.42;;
67310;Laerm;65444;51.438;5.982;2023-01-16T01:08:37;31.43;29.69;34.73;;
67310;Laerm;65444;51.438;5.982;2023-01-16T01:08:48;30.96;28.90;33.08;;
67310;Laerm;65444;51.438;5.982;2023-01-16T01:08:58;32.75;29.45;41.36;;
67310;Laerm;65444;51.438;5.982;2023-01-16T01:09:09;32.89;29.10;48.76;;
67310;Laerm;65444;51.438;5.982;2023-01-16T01:09:20;31.53;29.18;37.69;;
67310;Laerm;65444;51.438;5.982;2023-01-16T01:09:31;31.44;29.62;34.40;;
67310;Laerm;65444;51.438;5.982;2023-01-16T01:09:41;30.78;29.13;36.13;;
67310;Laerm;65444;51.438;5.982;2023-01-16T01:09:52;30.68;28.70;42.17;;
67310;Laerm;65444;51.438;5.982;2023-01-16T01:10:03;30.73;28.94;33.66;;
67310;Laerm;65444;51.438;5.982;2023-01-16T01:10:13;30.47;28.50;37.74;;
67310;Laerm;65444;51.438;5.982;2023-01-16T01:10:26;30.94;28.82;37.23;;
67310;Laerm;65444;51.438;5.982;2023-01-16T01:10:37;30.12;28.53;35.49;;
67310;Laerm;65444;51.438;5.982;2023-01-16T01:10:48;29.47;27.88;35.71;;
67310;Laerm;65444;51.438;5.982;2023-01-16T01:11:06;30.17;28.13;34.42;;
67310;Laerm;65444;51.438;5.982;2023-01-16T01:11:17;30.02;28.35;34.77;;
67310;Laerm;65444;51.438;5.982;2023-01-16T01:11:27;30.85;28.06;34.54;;
67310;Laerm;65444;51.438;5.982;2023-01-16T01:11:38;31.04;29.41;36.41;;
67310;Laerm;65444;51.438;5.982;2023-01-16T01:11:49;30.65;28.95;35.65;;
67310;Laerm;65444;51.438;5.982;2023-01-16T01:12:00;30.69;28.95;35.73;;
67310;Laerm;65444;51.438;5.982;2023-01-16T01:12:11;30.28;28.28;37.12;;
67310;Laerm;65444;51.438;5.982;2023-01-16T01:12:21;30.23;28.62;34.77;;
67310;Laerm;65444;51.438;5.982;2023-01-16T01:12:32;31.07;29.29;37.67;;
67310;Laerm;65444;51.438;5.982;2023-01-16T01:12:42;31.68;29.18;42.43;;
67310;Laerm;65444;51.438;5.982;2023-01-16T01:13:02;33.78;29.21;46.14;;
67310;Laerm;65444;51.438;5.982;2023-01-16T01:13:13;45.65;33.04;54.84;;
67310;Laerm;65444;51.438;5.982;2023-01-16T01:13:23;48.53;41.59;55.39;;
67310;Laerm;65444;51.438;5.982;2023-01-16T01:13:34;47.68;40.55;60.69;;
67310;Laerm;65444;51.438;5.982;2023-01-16T01:13:44;47.09;40.78;53.59;;
67310;Laerm;65444;51.438;5.982;2023-01-16T01:13:55;44.28;37.90;51.58;;
67310;Laerm;65444;51.438;5.982;2023-01-16T01:14:06;43.12;35.77;51.73;;
67310;Laerm;65444;51.438;5.982;2023-01-16T01:14:17;41.78;35.84;46.52;;
67310;Laerm;65444;51.438;5.982;2023-01-16T01:14:27;39.09;33.74;45.16;;
67310;Laerm;65444;51.438;5.982;2023-01-16T01:14:38;42.01;32.71;50.32;;
67310;Laerm;65444;51.438;5.982;2023-01-16T01:14:49;34.37;31.62;37.44;;
67310;Laerm;65444;51.438;5.982;2023-01-16T01:14:59;34.42;30.50;41.14;;
67310;Laerm;65444;51.438;5.982;2023-01-16T01:15:10;32.99;29.68;37.47;;
67310;Laerm;65444;51.438;5.982;2023-01-16T01:15:22;32.54;29.26;41.82;;
67310;Laerm;65444;51.438;5.982;2023-01-16T01:15:32;32.13;29.52;41.93;;
67310;Laerm;65444;51.438;5.982;2023-01-16T01:15:43;33.96;29.39;45.54;;
67310;Laerm;65444;51.438;5.982;2023-01-16T01:15:54;30.95;29.33;35.34;;
67310;Laerm;65444;51.438;5.982;2023-01-16T01:16:06;31.67;29.64;39.50;;
67310;Laerm;65444;51.438;5.982;2023-01-16T01:16:17;30.71;28.68;36.09;;
67310;Laerm;65444;51.438;5.982;2023-01-16T01:16:27;30.58;28.89;32.89;;
67310;Laerm;65444;51.438;5.982;2023-01-16T01:16:38;31.73;28.66;41.49;;
67310;Laerm;65444;51.438;5.982;2023-01-16T01:16:50;31.10;27.95;41.30;;
67310;Laerm;65444;51.438;5.982;2023-01-16T01:17:00;29.96;28.32;33.63;;
67310;Laerm;65444;51.438;5.982;2023-01-16T01:17:11;29.42;27.77;36.02;;
67310;Laerm;65444;51.438;5.982;2023-01-16T01:17:23;31.95;28.23;42.78;;
67310;Laerm;65444;51.438;5.982;2023-01-16T01:17:33;30.64;29.01;37.55;;
67310;Laerm;65444;51.438;5.982;2023-01-16T01:17:44;29.95;28.30;34.62;;
67310;Laerm;65444;51.438;5.982;2023-01-16T01:17:54;30.09;28.39;37.22;;
67310;Laerm;65444;51.438;5.982;2023-01-16T01:18:05;30.07;28.54;37.14;;
67310;Laerm;65444;51.438;5.982;2023-01-16T01:18:16;38.15;27.93;52.40;;
67310;Laerm;65444;51.438;5.982;2023-01-16T01:18:27;29.63;28.30;30.93;;
67310;Laerm;65444;51.438;5.982;2023-01-16T01:18:38;32.04;29.49;43.30;;
67310;Laerm;65444;51.438;5.982;2023-01-16T01:18:49;30.46;28.33;35.71;;
67310;Laerm;65444;51.438;5.982;2023-01-16T01:18:59;31.76;29.62;34.48;;
67310;Laerm;65444;51.438;5.982;2023-01-16T01:19:10;30.32;28.81;31.92;;
67310;Laerm;65444;51.438;5.982;2023-01-16T01:19:20;30.99;29.06;37.26;;
67310;Laerm;65444;51.438;5.982;2023-01-16T01:19:32;32.35;29.74;39.24;;
67310;Laerm;65444;51.438;5.982;2023-01-16T01:19:43;38.78;30.47;50.59;;
67310;Laerm;65444;51.438;5.982;2023-01-16T01:19:56;32.16;29.66;38.12;;
67310;Laerm;65444;51.438;5.982;2023-01-16T01:20:07;31.96;29.58;37.33;;
67310;Laerm;65444;51.438;5.982;2023-01-16T01:20:18;30.87;28.67;33.18;;
67310;Laerm;65444;51.438;5.982;2023-01-16T01:20:28;32.11;29.69;37.25;;
67310;Laerm;65444;51.438;5.982;2023-01-16T01:20:49;39.04;31.54;48.95;;